sensor_id;sensor_type;location;lat;lon;timestamp;pressure;altitude;pressure_sealevel;temperature;humidity
64115;BME280;62188;35.640;139.748;2023-02-28T00:00:01;102850.90;;;20.26;18.85
64115;BME280;62188;35.640;139.748;2023-02-28T00:02:26;102853.30;;;20.07;17.80
64115;BME280;62188;35.640;139.748;2023-02-28T00:04:52;102846.86;;;20.19;17.76
64115;BME280;62188;35.640;139.748;2023-02-28T00:07:16;102844.96;;;20.34;18.15
64115;BME280;62188;35.640;139.748;2023-02-28T00:09:42;102843.22;;;20.48;18.07
64115;BME280;62188;35.640;139.748;2023-02-28T00:12:07;102841.84;;;20.42;17.91
64115;BME280;62188;35.640;139.748;2023-02-28T00:14:33;102839.36;;;20.62;17.78
64115;BME280;62188;35.640;139.748;2023-02-28T00:16:58;102837.42;;;20.48;17.88
64115;BME280;62188;35.640;139.748;2023-02-28T00:19:23;102836.43;;;20.54;18.29
64115;BME280;62188;35.640;139.748;2023-02-28T00:21:49;102829.35;;;20.58;17.86
64115;BME280;62188;35.640;139.748;2023-02-28T00:24:15;102826.46;;;20.62;17.61
64115;BME280;62188;35.640;139.748;2023-02-28T00:26:39;102826.42;;;20.77;17.66
64115;BME280;62188;35.640;139.748;2023-02-28T00:29:05;102825.87;;;20.90;17.68
64115;BME280;62188;35.640;139.748;2023-02-28T00:31:29;102824.02;;;21.08;17.68
64115;BME280;62188;35.640;139.748;2023-02-28T00:33:55;102820.13;;;21.14;17.68
64115;BME280;62188;35.640;139.748;2023-02-28T00:36:21;102818.82;;;21.36;17.78
64115;BME280;62188;35.640;139.748;2023-02-28T00:38:45;102815.71;;;21.61;17.68
64115;BME280;62188;35.640;139.748;2023-02-28T00:41:11;102809.73;;;21.55;17.26
64115;BME280;62188;35.640;139.748;2023-02-28T00:43:37;102807.30;;;21.70;17.27
64115;BME280;62188;35.640;139.748;2023-02-28T00:46:02;102803.87;;;21.81;17.10
64115;BME280;62188;35.640;139.748;2023-02-28T00:48:27;102802.49;;;21.72;16.84
64115;BME280;62188;35.640;139.748;2023-02-28T00:50:53;102790.41;;;21.38;17.32
64115;BME280;62188;35.640;139.748;2023-02-28T00:53:19;102784.74;;;21.47;17.28
64115;BME280;62188;35.640;139.748;2023-02-28T00:55:44;102783.63;;;21.57;17.44
64115;BME280;62188;35.640;139.748;2023-02-28T00:58:09;102770.58;;;21.79;17.23
64115;BME280;62188;35.640;139.748;2023-02-28T01:00:35;102768.19;;;21.98;17.40
64115;BME280;62188;35.640;139.748;2023-02-28T01:03:00;102767.74;;;22.06;16.72
64115;BME280;62188;35.640;139.748;2023-02-28T01:05:25;102764.56;;;21.81;16.86
64115;BME280;62188;35.640;139.748;2023-02-28T01:07:51;102761.31;;;21.79;16.99
64115;BME280;62188;35.640;139.748;2023-02-28T01:10:17;102756.12;;;22.02;17.37
64115;BME280;62188;35.640;139.748;2023-02-28T01:12:42;102749.81;;;22.23;17.10
64115;BME280;62188;35.640;139.748;2023-02-28T01:15:10;102748.60;;;22.27;16.98
64115;BME280;62188;35.640;139.748;2023-02-28T01:17:33;102742.38;;;22.29;17.00
64115;BME280;62188;35.640;139.748;2023-02-28T01:19:58;102737.71;;;22.30;16.82
64115;BME280;62188;35.640;139.748;2023-02-28T01:22:24;102737.18;;;22.39;16.78
64115;BME280;62188;35.640;139.748;2023-02-28T01:24:49;102734.59;;;21.91;16.84
64115;BME280;62188;35.640;139.748;2023-02-28T01:27:15;102728.25;;;22.08;17.23
64115;BME280;62188;35.640;139.748;2023-02-28T01:29:40;102725.17;;;22.00;17.46
64115;BME280;62188;35.640;139.748;2023-02-28T01:32:06;102724.10;;;22.07;17.64
64115;BME280;62188;35.640;139.748;2023-02-28T01:34:31;102718.73;;;21.82;17.90
64115;BME280;62188;35.640;139.748;2023-02-28T01:36:56;102715.70;;;22.24;17.82
64115;BME280;62188;35.640;139.748;2023-02-28T01:39:22;102713.46;;;22.38;17.86
64115;BME280;62188;35.640;139.748;2023-02-28T01:41:47;102706.99;;;22.44;17.85
64115;BME280;62188;35.640;139.748;2023-02-28T01:46:41;102700.46;;;22.35;18.07
64115;BME280;62188;35.640;139.748;2023-02-28T01:49:09;102694.14;;;22.74;18.07
64115;BME280;62188;35.640;139.748;2023-02-28T01:51:34;102690.81;;;22.89;18.04
64115;BME280;62188;35.640;139.748;2023-02-28T01:53:58;102683.40;;;22.68;17.83
64115;BME280;62188;35.640;139.748;2023-02-28T01:56:25;102680.30;;;22.28;18.01
64115;BME280;62188;35.640;139.748;2023-02-28T01:58:46;102674.53;;;22.72;18.30
64115;BME280;62188;35.640;139.748;2023-02-28T02:01:12;102666.21;;;22.79;18.15
64115;BME280;62188;35.640;139.748;2023-02-28T02:03:38;102663.16;;;22.71;18.03
64115;BME280;62188;35.640;139.748;2023-02-28T02:06:04;102658.40;;;23.23;17.72
64115;BME280;62188;35.640;139.748;2023-02-28T02:08:30;102649.46;;;23.29;18.06
64115;BME280;62188;35.640;139.748;2023-02-28T02:10:56;102649.69;;;22.74;17.88
64115;BME280;62188;35.640;139.748;2023-02-28T02:13:33;102640.83;;;22.80;17.81
64115;BME280;62188;35.640;139.748;2023-02-28T02:15:53;102635.01;;;23.01;18.15
64115;BME280;62188;35.640;139.748;2023-02-28T02:18:18;102634.14;;;23.19;18.01
64115;BME280;62188;35.640;139.748;2023-02-28T02:25:30;102618.77;;;23.23;17.03
64115;BME280;62188;35.640;139.748;2023-02-28T02:28:07;102613.34;;;22.75;16.94
64115;BME280;62188;35.640;139.748;2023-02-28T02:35:13;102604.91;;;22.61;16.32
64115;BME280;62188;35.640;139.748;2023-02-28T02:37:38;102592.08;;;22.33;16.48
64115;BME280;62188;35.640;139.748;2023-02-28T02:40:05;102589.35;;;21.91;16.91
64115;BME280;62188;35.640;139.748;2023-02-28T02:42:29;102582.42;;;22.33;16.91
64115;BME280;62188;35.640;139.748;2023-02-28T02:44:55;102587.56;;;22.39;16.60
64115;BME280;62188;35.640;139.748;2023-02-28T02:47:18;102577.49;;;22.15;16.67
64115;BME280;62188;35.640;139.748;2023-02-28T02:49:44;102574.29;;;21.95;16.46
64115;BME280;62188;35.640;139.748;2023-02-28T02:52:11;102574.48;;;21.52;16.55
64115;BME280;62188;35.640;139.748;2023-02-28T02:54:35;102559.95;;;21.17;17.00
64115;BME280;62188;35.640;139.748;2023-02-28T02:57:01;102558.76;;;21.56;17.21
64115;BME280;62188;35.640;139.748;2023-02-28T02:59:24;102546.99;;;21.93;17.17
64115;BME280;62188;35.640;139.748;2023-02-28T03:01:51;102542.30;;;22.03;17.27
64115;BME280;62188;35.640;139.748;2023-02-28T03:04:18;102532.58;;;22.51;16.96
64115;BME280;62188;35.640;139.748;2023-02-28T03:06:40;102528.90;;;22.16;17.00
64115;BME280;62188;35.640;139.748;2023-02-28T03:09:05;102523.18;;;21.98;17.28
64115;BME280;62188;35.640;139.748;2023-02-28T03:11:31;102521.99;;;22.38;17.15
64115;BME280;62188;35.640;139.748;2023-02-28T03:14:08;102521.82;;;22.27;17.24
64115;BME280;62188;35.640;139.748;2023-02-28T03:16:30;102505.87;;;21.62;17.75
64115;BME280;62188;35.640;139.748;2023-02-28T03:18:53;102491.36;;;21.35;17.91
64115;BME280;62188;35.640;139.748;2023-02-28T03:21:19;102485.23;;;21.16;18.07
64115;BME280;62188;35.640;139.748;2023-02-28T03:23:44;102479.08;;;21.43;18.11
64115;BME280;62188;35.640;139.748;2023-02-28T03:26:07;102481.71;;;21.24;18.25
64115;BME280;62188;35.640;139.748;2023-02-28T03:28:36;102471.64;;;21.00;18.37
64115;BME280;62188;35.640;139.748;2023-02-28T03:31:00;102466.25;;;20.76;18.41
64115;BME280;62188;35.640;139.748;2023-02-28T03:33:22;102463.89;;;20.53;18.58
64115;BME280;62188;35.640;139.748;2023-02-28T03:35:50;102449.58;;;20.61;18.63
64115;BME280;62188;35.640;139.748;2023-02-28T03:38:15;102451.44;;;21.15;18.57
64115;BME280;62188;35.640;139.748;2023-02-28T03:40:40;102435.09;;;20.92;18.47
64115;BME280;62188;35.640;139.748;2023-02-28T03:43:08;102437.76;;;21.34;18.32
64115;BME280;62188;35.640;139.748;2023-02-28T03:45:30;102430.10;;;21.66;18.29
64115;BME280;62188;35.640;139.748;2023-02-28T03:47:58;102421.00;;;21.60;18.46
64115;BME280;62188;35.640;139.748;2023-02-28T03:50:22;102413.53;;;21.62;18.74
64115;BME280;62188;35.640;139.748;2023-02-28T03:52:49;102397.35;;;21.76;18.56
64115;BME280;62188;35.640;139.748;2023-02-28T03:55:13;102412.15;;;21.78;18.61
64115;BME280;62188;35.640;139.748;2023-02-28T03:57:40;102397.70;;;21.88;18.28
64115;BME280;62188;35.640;139.748;2023-02-28T04:00:05;102391.36;;;21.74;18.28
64115;BME280;62188;35.640;139.748;2023-02-28T04:02:27;102377.84;;;21.53;18.18
64115;BME280;62188;35.640;139.748;2023-02-28T04:04:52;102377.74;;;21.83;18.27
64115;BME280;62188;35.640;139.748;2023-02-28T04:07:18;102374.19;;;22.15;17.53
64115;BME280;62188;35.640;139.748;2023-02-28T04:09:43;102375.73;;;21.24;17.65
64115;BME280;62188;35.640;139.748;2023-02-28T04:12:09;102361.15;;;21.53;17.64
64115;BME280;62188;35.640;139.748;2023-02-28T04:14:34;102346.63;;;21.66;17.68
64115;BME280;62188;35.640;139.748;2023-02-28T04:17:00;102346.72;;;22.46;17.59
64115;BME280;62188;35.640;139.748;2023-02-28T04:19:26;102341.34;;;22.31;17.39
64115;BME280;62188;35.640;139.748;2023-02-28T04:21:52;102337.02;;;22.53;17.34
64115;BME280;62188;35.640;139.748;2023-02-28T04:24:20;102342.99;;;21.81;17.28
64115;BME280;62188;35.640;139.748;2023-02-28T04:26:44;102349.93;;;22.02;17.50
64115;BME280;62188;35.640;139.748;2023-02-28T04:29:08;102321.44;;;21.80;17.63
64115;BME280;62188;35.640;139.748;2023-02-28T04:31:33;102318.89;;;22.23;17.69
64115;BME280;62188;35.640;139.748;2023-02-28T04:33:59;102316.93;;;21.96;17.81
64115;BME280;62188;35.640;139.748;2023-02-28T04:36:24;102313.94;;;21.90;17.71
64115;BME280;62188;35.640;139.748;2023-02-28T04:38:49;102307.31;;;22.63;17.73
64115;BME280;62188;35.640;139.748;2023-02-28T04:41:15;102304.73;;;21.95;17.57
64115;BME280;62188;35.640;139.748;2023-02-28T04:43:40;102304.37;;;22.32;17.56
64115;BME280;62188;35.640;139.748;2023-02-28T04:46:06;102310.35;;;22.34;17.53
64115;BME280;62188;35.640;139.748;2023-02-28T04:48:34;102302.61;;;21.49;17.74
64115;BME280;62188;35.640;139.748;2023-02-28T04:51:01;102298.26;;;21.12;18.06
64115;BME280;62188;35.640;139.748;2023-02-28T04:53:22;102296.42;;;20.99;18.18
64115;BME280;62188;35.640;139.748;2023-02-28T04:55:48;102298.31;;;20.96;18.53
64115;BME280;62188;35.640;139.748;2023-02-28T04:58:13;102292.56;;;20.27;18.84
64115;BME280;62188;35.640;139.748;2023-02-28T05:00:40;102294.11;;;20.01;19.08
64115;BME280;62188;35.640;139.748;2023-02-28T05:03:04;102280.07;;;19.75;19.31
64115;BME280;62188;35.640;139.748;2023-02-28T05:05:30;102291.47;;;19.53;19.56
64115;BME280;62188;35.640;139.748;2023-02-28T05:07:56;102275.26;;;19.49;19.50
64115;BME280;62188;35.640;139.748;2023-02-28T05:10:20;102262.72;;;19.94;19.72
64115;BME280;62188;35.640;139.748;2023-02-28T05:12:46;102280.44;;;18.97;19.67
64115;BME280;62188;35.640;139.748;2023-02-28T05:15:14;102275.55;;;18.79;19.74
64115;BME280;62188;35.640;139.748;2023-02-28T05:17:38;102269.49;;;18.64;19.95
64115;BME280;62188;35.640;139.748;2023-02-28T05:20:03;102261.23;;;18.52;19.84
64115;BME280;62188;35.640;139.748;2023-02-28T05:22:29;102259.43;;;18.92;19.64
64115;BME280;62188;35.640;139.748;2023-02-28T05:24:54;102253.95;;;19.00;19.48
64115;BME280;62188;35.640;139.748;2023-02-28T05:27:19;102257.23;;;18.74;19.53
64115;BME280;62188;35.640;139.748;2023-02-28T05:29:45;102258.98;;;19.11;19.52
64115;BME280;62188;35.640;139.748;2023-02-28T05:32:11;102258.60;;;18.92;19.42
64115;BME280;62188;35.640;139.748;2023-02-28T05:34:38;102252.81;;;18.99;19.53
64115;BME280;62188;35.640;139.748;2023-02-28T05:37:02;102252.44;;;19.03;19.77
64115;BME280;62188;35.640;139.748;2023-02-28T05:39:27;102243.93;;;19.09;19.67
64115;BME280;62188;35.640;139.748;2023-02-28T05:41:53;102253.49;;;19.13;19.61
64115;BME280;62188;35.640;139.748;2023-02-28T05:44:18;102244.56;;;18.87;19.68
64115;BME280;62188;35.640;139.748;2023-02-28T05:46:44;102235.85;;;18.97;19.88
64115;BME280;62188;35.640;139.748;2023-02-28T05:49:10;102236.91;;;19.09;19.97
64115;BME280;62188;35.640;139.748;2023-02-28T05:51:35;102230.56;;;19.26;19.92
64115;BME280;62188;35.640;139.748;2023-02-28T05:54:01;102225.52;;;19.35;19.99
64115;BME280;62188;35.640;139.748;2023-02-28T05:56:27;102220.30;;;18.97;20.07
64115;BME280;62188;35.640;139.748;2023-02-28T05:58:52;102217.27;;;18.81;20.18
64115;BME280;62188;35.640;139.748;2023-02-28T06:01:33;102222.98;;;19.09;20.30
64115;BME280;62188;35.640;139.748;2023-02-28T06:03:42;102216.72;;;19.44;20.46
64115;BME280;62188;35.640;139.748;2023-02-28T06:06:08;102224.27;;;19.26;20.42
64115;BME280;62188;35.640;139.748;2023-02-28T06:08:34;102226.08;;;19.07;20.53
64115;BME280;62188;35.640;139.748;2023-02-28T06:11:02;102217.63;;;18.86;20.52
64115;BME280;62188;35.640;139.748;2023-02-28T06:13:25;102220.32;;;19.04;20.69
64115;BME280;62188;35.640;139.748;2023-02-28T06:15:50;102215.03;;;19.06;20.75
64115;BME280;62188;35.640;139.748;2023-02-28T06:18:16;102238.21;;;19.12;20.73
64115;BME280;62188;35.640;139.748;2023-02-28T06:20:41;102227.93;;;18.60;20.74
64115;BME280;62188;35.640;139.748;2023-02-28T06:23:18;102228.79;;;18.82;20.79
64115;BME280;62188;35.640;139.748;2023-02-28T06:25:33;102214.53;;;18.49;20.92
64115;BME280;62188;35.640;139.748;2023-02-28T06:27:58;102224.70;;;18.71;20.90
64115;BME280;62188;35.640;139.748;2023-02-28T06:30:24;102218.24;;;18.73;20.86
64115;BME280;62188;35.640;139.748;2023-02-28T06:32:49;102212.90;;;18.83;20.87
64115;BME280;62188;35.640;139.748;2023-02-28T06:35:14;102208.74;;;18.83;20.83
64115;BME280;62188;35.640;139.748;2023-02-28T06:37:40;102214.26;;;18.84;20.91
64115;BME280;62188;35.640;139.748;2023-02-28T06:40:07;102218.76;;;18.37;21.09
64115;BME280;62188;35.640;139.748;2023-02-28T06:42:32;102199.34;;;18.56;21.21
64115;BME280;62188;35.640;139.748;2023-02-28T06:44:58;102204.72;;;18.46;21.31
64115;BME280;62188;35.640;139.748;2023-02-28T06:47:23;102195.20;;;18.59;21.36
64115;BME280;62188;35.640;139.748;2023-02-28T06:49:48;102190.10;;;18.59;21.40
64115;BME280;62188;35.640;139.748;2023-02-28T06:52:14;102195.79;;;18.62;21.53
64115;BME280;62188;35.640;139.748;2023-02-28T06:54:41;102200.89;;;18.85;21.40
64115;BME280;62188;35.640;139.748;2023-02-28T06:57:05;102188.73;;;18.67;21.01
64115;BME280;62188;35.640;139.748;2023-02-28T06:59:30;102181.43;;;18.85;21.09
64115;BME280;62188;35.640;139.748;2023-02-28T07:01:56;102187.59;;;18.86;21.02
64115;BME280;62188;35.640;139.748;2023-02-28T07:04:22;102191.76;;;18.68;21.06
64115;BME280;62188;35.640;139.748;2023-02-28T07:06:47;102190.57;;;18.70;20.82
64115;BME280;62188;35.640;139.748;2023-02-28T07:09:13;102186.14;;;18.48;20.66
64115;BME280;62188;35.640;139.748;2023-02-28T07:11:39;102193.49;;;18.82;20.59
64115;BME280;62188;35.640;139.748;2023-02-28T07:14:03;102191.22;;;18.96;20.56
64115;BME280;62188;35.640;139.748;2023-02-28T07:16:29;102191.83;;;18.85;20.38
64115;BME280;62188;35.640;139.748;2023-02-28T07:18:55;102195.14;;;18.64;20.49
64115;BME280;62188;35.640;139.748;2023-02-28T07:21:20;102191.71;;;18.50;20.48
64115;BME280;62188;35.640;139.748;2023-02-28T07:23:46;102190.15;;;18.64;20.72
64115;BME280;62188;35.640;139.748;2023-02-28T07:26:13;102190.48;;;18.55;20.64
64115;BME280;62188;35.640;139.748;2023-02-28T07:28:37;102192.23;;;18.64;20.59
64115;BME280;62188;35.640;139.748;2023-02-28T07:31:05;102192.24;;;18.74;20.57
64115;BME280;62188;35.640;139.748;2023-02-28T07:33:28;102191.00;;;18.69;20.56
64115;BME280;62188;35.640;139.748;2023-02-28T07:38:19;102195.02;;;18.83;20.59
64115;BME280;62188;35.640;139.748;2023-02-28T07:40:44;102188.65;;;18.77;20.70
64115;BME280;62188;35.640;139.748;2023-02-28T07:43:10;102195.45;;;18.70;20.72
64115;BME280;62188;35.640;139.748;2023-02-28T07:45:36;102197.71;;;18.63;20.77
64115;BME280;62188;35.640;139.748;2023-02-28T07:48:01;102195.76;;;18.67;20.84
64115;BME280;62188;35.640;139.748;2023-02-28T07:50:27;102203.40;;;18.72;20.87
64115;BME280;62188;35.640;139.748;2023-02-28T07:52:53;102195.44;;;18.61;20.95
64115;BME280;62188;35.640;139.748;2023-02-28T07:55:18;102188.71;;;18.46;21.02
64115;BME280;62188;35.640;139.748;2023-02-28T07:57:44;102191.83;;;18.50;21.15
64115;BME280;62188;35.640;139.748;2023-02-28T08:00:11;102187.77;;;18.59;21.23
64115;BME280;62188;35.640;139.748;2023-02-28T08:02:35;102190.71;;;18.92;21.25
64115;BME280;62188;35.640;139.748;2023-02-28T08:05:01;102195.09;;;18.99;21.20
64115;BME280;62188;35.640;139.748;2023-02-28T08:07:26;102188.71;;;18.92;21.19
64115;BME280;62188;35.640;139.748;2023-02-28T08:09:56;102192.78;;;18.83;21.14
64115;BME280;62188;35.640;139.748;2023-02-28T08:12:17;102194.52;;;18.78;21.24
64115;BME280;62188;35.640;139.748;2023-02-28T08:14:47;102193.85;;;18.55;21.24
64115;BME280;62188;35.640;139.748;2023-02-28T08:17:09;102194.09;;;18.62;21.33
64115;BME280;62188;35.640;139.748;2023-02-28T08:19:34;102193.83;;;18.56;21.35
64115;BME280;62188;35.640;139.748;2023-02-28T08:22:00;102196.59;;;18.43;21.14
64115;BME280;62188;35.640;139.748;2023-02-28T08:24:25;102186.37;;;18.26;21.21
64115;BME280;62188;35.640;139.748;2023-02-28T08:26:51;102188.25;;;18.09;21.14
64115;BME280;62188;35.640;139.748;2023-02-28T08:29:16;102186.81;;;18.16;21.23
64115;BME280;62188;35.640;139.748;2023-02-28T08:31:42;102191.66;;;18.50;21.27
64115;BME280;62188;35.640;139.748;2023-02-28T08:34:08;102189.08;;;18.33;20.99
64115;BME280;62188;35.640;139.748;2023-02-28T08:36:33;102191.55;;;18.36;20.93
64115;BME280;62188;35.640;139.748;2023-02-28T08:38:58;102190.35;;;18.32;20.88
64115;BME280;62188;35.640;139.748;2023-02-28T08:41:24;102178.26;;;18.32;20.77
64115;BME280;62188;35.640;139.748;2023-02-28T08:43:49;102178.42;;;18.20;20.52
64115;BME280;62188;35.640;139.748;2023-02-28T08:46:15;102181.57;;;18.17;20.54
64115;BME280;62188;35.640;139.748;2023-02-28T08:48:40;102186.64;;;18.21;20.45
64115;BME280;62188;35.640;139.748;2023-02-28T08:51:08;102183.54;;;18.06;20.46
64115;BME280;62188;35.640;139.748;2023-02-28T08:53:32;102177.41;;;18.02;20.20
64115;BME280;62188;35.640;139.748;2023-02-28T08:55:59;102184.60;;;18.08;20.32
64115;BME280;62188;35.640;139.748;2023-02-28T08:58:23;102184.07;;;17.97;20.40
64115;BME280;62188;35.640;139.748;2023-02-28T09:00:48;102180.24;;;17.67;20.26
64115;BME280;62188;35.640;139.748;2023-02-28T09:03:13;102180.85;;;17.50;20.17
64115;BME280;62188;35.640;139.748;2023-02-28T09:05:39;102178.76;;;17.52;20.24
64115;BME280;62188;35.640;139.748;2023-02-28T09:08:05;102183.10;;;18.09;20.24
64115;BME280;62188;35.640;139.748;2023-02-28T09:10:31;102177.37;;;17.79;20.34
64115;BME280;62188;35.640;139.748;2023-02-28T09:12:56;102175.95;;;17.67;20.48
64115;BME280;62188;35.640;139.748;2023-02-28T09:15:22;102183.38;;;17.46;20.65
64115;BME280;62188;35.640;139.748;2023-02-28T09:17:47;102191.48;;;17.58;20.70
64115;BME280;62188;35.640;139.748;2023-02-28T09:20:14;102187.61;;;18.04;21.46
64115;BME280;62188;35.640;139.748;2023-02-28T09:22:38;102183.41;;;17.78;20.84
64115;BME280;62188;35.640;139.748;2023-02-28T09:25:05;102189.34;;;17.53;20.80
64115;BME280;62188;35.640;139.748;2023-02-28T09:27:31;102193.05;;;17.66;20.92
64115;BME280;62188;35.640;139.748;2023-02-28T09:29:55;102186.00;;;17.54;20.93
64115;BME280;62188;35.640;139.748;2023-02-28T09:32:20;102188.40;;;17.89;20.94
64115;BME280;62188;35.640;139.748;2023-02-28T09:34:46;102181.54;;;17.98;20.96
64115;BME280;62188;35.640;139.748;2023-02-28T09:37:12;102184.18;;;17.33;21.21
64115;BME280;62188;35.640;139.748;2023-02-28T09:39:37;102191.13;;;18.01;21.10
64115;BME280;62188;35.640;139.748;2023-02-28T09:42:04;102182.84;;;17.26;21.40
64115;BME280;62188;35.640;139.748;2023-02-28T09:44:31;102175.95;;;17.56;21.56
64115;BME280;62188;35.640;139.748;2023-02-28T09:46:57;102185.09;;;17.87;21.63
64115;BME280;62188;35.640;139.748;2023-02-28T09:49:24;102182.24;;;17.66;21.80
64115;BME280;62188;35.640;139.748;2023-02-28T09:51:50;102170.19;;;17.75;21.85
64115;BME280;62188;35.640;139.748;2023-02-28T09:54:16;102180.59;;;17.65;22.15
64115;BME280;62188;35.640;139.748;2023-02-28T09:56:38;102174.01;;;17.58;22.39
64115;BME280;62188;35.640;139.748;2023-02-28T09:59:05;102180.08;;;17.61;22.74
64115;BME280;62188;35.640;139.748;2023-02-28T10:01:33;102175.62;;;17.41;22.70
64115;BME280;62188;35.640;139.748;2023-02-28T10:03:58;102175.25;;;17.48;22.78
64115;BME280;62188;35.640;139.748;2023-02-28T10:06:21;102186.15;;;17.88;22.98
64115;BME280;62188;35.640;139.748;2023-02-28T10:08:50;102186.77;;;17.92;23.02
64115;BME280;62188;35.640;139.748;2023-02-28T10:11:14;102181.25;;;17.43;23.00
64115;BME280;62188;35.640;139.748;2023-02-28T10:13:37;102182.62;;;17.39;23.11
64115;BME280;62188;35.640;139.748;2023-02-28T10:16:05;102182.46;;;17.20;23.36
64115;BME280;62188;35.640;139.748;2023-02-28T10:18:30;102178.34;;;17.65;23.42
64115;BME280;62188;35.640;139.748;2023-02-28T10:20:53;102180.35;;;17.56;23.59
64115;BME280;62188;35.640;139.748;2023-02-28T10:23:21;102185.07;;;17.39;23.58
64115;BME280;62188;35.640;139.748;2023-02-28T10:25:48;102191.33;;;17.45;23.60
64115;BME280;62188;35.640;139.748;2023-02-28T10:28:13;102181.79;;;17.72;23.54
64115;BME280;62188;35.640;139.748;2023-02-28T10:30:35;102186.57;;;17.80;23.68
64115;BME280;62188;35.640;139.748;2023-02-28T10:33:00;102185.40;;;17.78;23.53
64115;BME280;62188;35.640;139.748;2023-02-28T10:35:26;102183.78;;;17.76;23.60
64115;BME280;62188;35.640;139.748;2023-02-28T10:37:53;102192.81;;;17.24;23.67
64115;BME280;62188;35.640;139.748;2023-02-28T10:40:28;102183.72;;;17.59;23.73
64115;BME280;62188;35.640;139.748;2023-02-28T10:42:43;102185.61;;;17.64;23.83
64115;BME280;62188;35.640;139.748;2023-02-28T10:45:13;102184.31;;;17.49;23.73
64115;BME280;62188;35.640;139.748;2023-02-28T10:47:35;102185.32;;;17.78;23.71
64115;BME280;62188;35.640;139.748;2023-02-28T10:49:59;102183.40;;;17.44;23.63
64115;BME280;62188;35.640;139.748;2023-02-28T10:52:35;102186.48;;;17.59;23.68
64115;BME280;62188;35.640;139.748;2023-02-28T10:54:50;102177.23;;;17.18;23.72
64115;BME280;62188;35.640;139.748;2023-02-28T10:57:20;102176.68;;;17.31;24.08
64115;BME280;62188;35.640;139.748;2023-02-28T10:59:42;102174.32;;;16.83;24.29
64115;BME280;62188;35.640;139.748;2023-02-28T11:04:36;102180.66;;;17.22;24.39
64115;BME280;62188;35.640;139.748;2023-02-28T11:07:00;102185.67;;;17.07;24.50
64115;BME280;62188;35.640;139.748;2023-02-28T11:09:28;102183.54;;;17.05;24.63
64115;BME280;62188;35.640;139.748;2023-02-28T11:11:50;102191.36;;;17.01;24.85
64115;BME280;62188;35.640;139.748;2023-02-28T11:14:21;102184.15;;;16.91;25.29
64115;BME280;62188;35.640;139.748;2023-02-28T11:16:41;102193.95;;;16.71;25.78
64115;BME280;62188;35.640;139.748;2023-02-28T11:19:16;102198.92;;;16.68;25.97
64115;BME280;62188;35.640;139.748;2023-02-28T11:21:35;102194.26;;;16.89;26.36
64115;BME280;62188;35.640;139.748;2023-02-28T11:24:03;102195.89;;;16.76;26.42
64115;BME280;62188;35.640;139.748;2023-02-28T11:26:38;102198.10;;;17.06;26.54
64115;BME280;62188;35.640;139.748;2023-02-28T11:28:49;102193.67;;;16.78;26.75
64115;BME280;62188;35.640;139.748;2023-02-28T11:31:19;102194.47;;;17.11;26.77
64115;BME280;62188;35.640;139.748;2023-02-28T11:33:43;102192.27;;;16.93;26.85
64115;BME280;62188;35.640;139.748;2023-02-28T11:36:12;102194.41;;;16.99;26.91
64115;BME280;62188;35.640;139.748;2023-02-28T11:38:34;102193.13;;;17.01;26.99
64115;BME280;62188;35.640;139.748;2023-02-28T11:41:08;102203.25;;;17.07;27.02
64115;BME280;62188;35.640;139.748;2023-02-28T11:43:32;102199.07;;;16.84;27.21
64115;BME280;62188;35.640;139.748;2023-02-28T11:46:00;102196.12;;;16.70;27.38
64115;BME280;62188;35.640;139.748;2023-02-28T11:48:20;102198.18;;;16.43;27.65
64115;BME280;62188;35.640;139.748;2023-02-28T11:50:47;102202.76;;;16.45;27.65
64115;BME280;62188;35.640;139.748;2023-02-28T11:53:12;102207.21;;;16.73;27.70
64115;BME280;62188;35.640;139.748;2023-02-28T11:55:35;102207.99;;;16.46;27.89
64115;BME280;62188;35.640;139.748;2023-02-28T12:00:32;102208.21;;;16.59;27.96
64115;BME280;62188;35.640;139.748;2023-02-28T12:02:56;102208.67;;;16.61;27.86
64115;BME280;62188;35.640;139.748;2023-02-28T12:05:24;102209.23;;;16.24;28.07
64115;BME280;62188;35.640;139.748;2023-02-28T12:07:46;102211.85;;;16.53;27.92
64115;BME280;62188;35.640;139.748;2023-02-28T12:10:13;102216.03;;;16.36;27.87
64115;BME280;62188;35.640;139.748;2023-02-28T12:12:39;102216.94;;;16.46;28.03
64115;BME280;62188;35.640;139.748;2023-02-28T12:15:04;102211.31;;;16.28;28.17
64115;BME280;62188;35.640;139.748;2023-02-28T12:17:32;102210.79;;;16.56;28.32
64115;BME280;62188;35.640;139.748;2023-02-28T12:19:52;102212.68;;;16.57;28.47
64115;BME280;62188;35.640;139.748;2023-02-28T12:22:22;102208.11;;;16.44;28.73
64115;BME280;62188;35.640;139.748;2023-02-28T12:24:47;102204.92;;;16.20;28.85
64115;BME280;62188;35.640;139.748;2023-02-28T12:27:07;102198.94;;;16.46;29.00
64115;BME280;62188;35.640;139.748;2023-02-28T12:29:33;102190.06;;;16.48;29.19
64115;BME280;62188;35.640;139.748;2023-02-28T12:32:01;102186.65;;;16.64;29.13
64115;BME280;62188;35.640;139.748;2023-02-28T12:34:25;102181.00;;;16.57;29.64
64115;BME280;62188;35.640;139.748;2023-02-28T12:36:47;102185.47;;;16.66;29.60
64115;BME280;62188;35.640;139.748;2023-02-28T12:39:15;102181.33;;;16.34;29.90